Time;durP1;ratioP1;P1;durP2;ratioP2;P2;SDS_P1;SDS_P2;PMS_P1;PMS_P2;Temp;Humidity;BMP_temperature;BMP_pressure;BME280_temperature;BME280_humidity;BME280_pressure;Samples;Min_cycle;Max_cycle;Signal;HPM_P1;HPM_P2
2022/10/07 00:02:19;;;;;;;17.00;7.03;;;7.20;92.00;;;;;;5068450;27;20681;-61
2022/10/07 00:04:45;;;;;;;27.37;8.37;;;7.10;91.90;;;;;;5072594;28;20478;-60
2022/10/07 00:07:13;;;;;;;25.17;7.43;;;;;;;;;;5064463;27;20755;-61
2022/10/07 00:09:40;;;;;;;38.40;9.73;;;7.00;91.80;;;;;;5081090;27;20488;-62
2022/10/07 00:12:07;;;;;;;50.73;11.10;;;7.00;92.10;;;;;;5077205;28;20486;-63
2022/10/07 00:14:34;;;;;;;76.70;15.73;;;;;;;;;;5075337;28;20478;-62
2022/10/07 00:17:01;;;;;;;94.17;22.67;;;;;;;;;;5074980;27;20994;-62
2022/10/07 00:19:30;;;;;;;206.70;36.80;;;;;;;;;;5072936;28;20482;-62
2022/10/07 00:21:57;;;;;;;106.67;19.20;;;;;;;;;;5060850;28;20755;-62
2022/10/07 00:24:24;;;;;;;107.40;18.67;;;;;;;;;;5074606;28;20474;-61
2022/10/07 00:26:51;;;;;;;61.20;13.50;;;;;;;;;;5073522;27;20818;-61
2022/10/07 00:29:18;;;;;;;80.03;18.70;;;;;;;;;;5077444;27;20921;-62
2022/10/07 00:31:45;;;;;;;61.00;13.40;;;;;;;;;;5065705;28;21100;-62
2022/10/07 00:34:13;;;;;;;49.80;11.60;;;;;;;;;;5074254;28;20628;-62
2022/10/07 00:36:42;;;;;;;44.13;10.83;;;3.90;91.50;;;;;;5068919;28;20470;-62
2022/10/07 00:39:12;;;;;;;41.40;9.83;;;6.60;92.80;;;;;;5067908;27;20489;-60
2022/10/07 00:41:42;;;;;;;33.00;8.83;;;5.00;92.20;;;;;;5068076;28;20478;-60
2022/10/07 00:44:42;;;;;;;18.53;6.63;;;6.70;92.80;;;;;;5072727;28;20587;-60
2022/10/07 00:47:22;;;;;;;28.63;10.40;;;6.70;92.70;;;;;;5064579;28;20482;-60
2022/10/07 00:49:51;;;;;;;19.70;7.43;;;6.70;93.10;;;;;;5066792;28;20998;-60
2022/10/07 00:52:22;;;;;;;16.27;6.07;;;6.60;93.00;;;;;;5056852;28;20493;-60
2022/10/07 00:54:52;;;;;;;38.87;10.13;;;6.60;92.90;;;;;;5079092;28;20765;-60
2022/10/07 00:57:20;;;;;;;23.17;6.70;;;6.60;92.60;;;;;;5068081;28;20549;-60
2022/10/07 00:59:47;;;;;;;26.03;8.70;;;;;;;;;;5070384;28;20855;-60
2022/10/07 01:02:14;;;;;;;23.50;7.67;;;;;;;;;;5068934;28;20478;-60
2022/10/07 01:04:43;;;;;;;34.30;9.87;;;;;;;;;;5065425;28;20863;-60
2022/10/07 01:07:10;;;;;;;25.93;8.33;;;6.60;92.80;;;;;;5078015;28;20821;-60
2022/10/07 01:09:38;;;;;;;41.53;12.30;;;4.90;92.40;;;;;;5066872;28;20476;-60
2022/10/07 01:12:10;;;;;;;44.23;9.73;;;6.60;93.20;;;;;;5068536;28;21042;-60
2022/10/07 01:14:51;;;;;;;27.83;9.10;;;6.60;93.20;;;;;;5012512;28;20867;-60
2022/10/07 01:17:25;;;;;;;18.60;6.03;;;6.60;93.10;;;;;;5028814;28;20780;-60
2022/10/07 01:20:21;;;;;;;31.23;8.63;;;6.60;93.00;;;;;;5044434;28;20479;-61
2022/10/07 01:23:01;;;;;;;30.50;8.80;;;6.60;93.10;;;;;;5036791;28;20482;-61
2022/10/07 01:25:33;;;;;;;45.50;12.67;;;;;;;;;;5044977;28;20511;-61
2022/10/07 01:28:06;;;;;;;44.47;12.10;;;6.60;93.20;;;;;;5044064;28;20480;-61
2022/10/07 01:30:37;;;;;;;47.17;11.40;;;6.70;93.40;;;;;;5038458;28;20492;-61
2022/10/07 01:33:06;;;;;;;27.33;8.10;;;6.70;93.20;;;;;;5046579;28;20479;-61
2022/10/07 01:35:35;;;;;;;51.33;13.10;;;6.70;93.00;;;;;;5042452;28;21243;-61
2022/10/07 01:38:06;;;;;;;51.93;12.43;;;6.10;92.90;;;;;;5041756;28;20488;-62
2022/10/07 01:40:37;;;;;;;41.97;9.83;;;6.70;93.10;;;;;;5041396;28;20479;-61
2022/10/07 01:43:06;;;;;;;32.43;9.33;;;6.60;93.40;;;;;;5041125;28;20506;-60
2022/10/07 01:45:35;;;;;;;37.33;11.50;;;6.50;93.40;;;;;;5046039;28;20578;-60
2022/10/07 01:48:02;;;;;;;40.47;10.90;;;6.50;93.50;;;;;;5042385;28;20491;-60
2022/10/07 01:50:30;;;;;;;49.17;13.73;;;;;;;;;;5042782;28;21002;-63
2022/10/07 01:53:14;;;;;;;25.73;9.00;;;6.50;93.60;;;;;;5042916;28;20939;-61
2022/10/07 01:55:51;;;;;;;27.50;9.67;;;6.90;93.70;;;;;;5042638;28;21069;-61
2022/10/07 01:58:27;;;;;;;18.83;5.70;;;;;;;;;;5031196;28;20475;-62
2022/10/07 02:00:56;;;;;;;30.33;10.00;;;;;;;;;;5032931;28;20821;-60
2022/10/07 02:03:44;;;;;;;30.97;9.10;;;6.30;93.60;;;;;;5045801;28;20691;-61
2022/10/07 02:06:20;;;;;;;18.20;6.67;;;6.40;93.60;;;;;;5061769;28;20479;-62
2022/10/07 02:08:50;;;;;;;26.70;6.80;;;6.40;93.60;;;;;;5032666;28;20646;-62
2022/10/07 02:11:20;;;;;;;15.70;6.50;;;;;;;;;;5033166;28;20815;-60
2022/10/07 02:14:00;;;;;;;28.63;9.80;;;6.50;93.40;;;;;;5046443;28;20474;-61
2022/10/07 02:16:32;;;;;;;44.43;13.83;;;6.50;93.20;;;;;;5030504;28;20513;-61
2022/10/07 02:19:02;;;;;;;28.80;8.80;;;6.50;93.40;;;;;;5045582;28;20487;-62
2022/10/07 02:21:35;;;;;;;41.97;12.33;;;6.50;93.70;;;;;;5045129;28;20474;-62
2022/10/07 02:24:03;;;;;;;37.07;10.37;;;6.50;93.60;;;;;;5039173;28;21272;-63
2022/10/07 02:26:32;;;;;;;41.17;12.70;;;6.50;93.70;;;;;;5055531;28;20482;-60
2022/10/07 02:29:04;;;;;;;23.60;7.87;;;6.50;93.90;;;;;;5043947;28;21111;-61
2022/10/07 02:31:33;;;;;;;36.07;10.87;;;;;;;;;;5048131;28;20490;-60
2022/10/07 02:34:02;;;;;;;27.47;6.90;;;6.50;93.80;;;;;;5043582;28;20492;-61
2022/10/07 02:36:32;;;;;;;39.20;11.47;;;6.50;93.90;;;;;;5043742;28;20498;-60
2022/10/07 02:38:59;;;;;;;40.10;10.30;;;6.50;93.90;;;;;;5048145;28;20479;-60
2022/10/07 02:41:35;;;;;;;72.03;14.00;;;6.50;94.00;;;;;;5044744;28;20578;-60
2022/10/07 02:44:13;;;;;;;38.83;8.97;;;6.50;94.00;;;;;;5043404;28;20483;-60
2022/10/07 02:46:45;;;;;;;30.63;8.10;;;6.50;94.00;;;;;;5035376;28;20476;-60
2022/10/07 02:49:16;;;;;;;47.77;10.60;;;6.40;94.20;;;;;;5008890;28;20496;-60
2022/10/07 02:51:47;;;;;;;49.90;9.83;;;6.40;94.40;;;;;;5040462;28;20484;-61
2022/10/07 02:54:17;;;;;;;42.47;9.40;;;6.50;94.50;;;;;;5044638;28;20581;-60
2022/10/07 02:56:45;;;;;;;48.57;10.50;;;6.60;94.50;;;;;;5021346;28;20476;-61
2022/10/07 02:59:16;;;;;;;41.07;9.70;;;6.40;94.60;;;;;;5042903;28;20479;-60
2022/10/07 03:01:46;;;;;;;48.87;9.87;;;6.30;95.20;;;;;;5041575;28;20483;-60
2022/10/07 03:04:13;;;;;;;58.57;12.43;;;6.20;95.70;;;;;;5036763;28;20499;-60
2022/10/07 03:06:41;;;;;;;25.90;7.80;;;6.20;95.50;;;;;;5018697;28;20909;-60
2022/10/07 03:09:09;;;;;;;24.80;8.37;;;6.20;95.20;;;;;;5037862;28;20850;-60
2022/10/07 03:11:38;;;;;;;43.63;12.27;;;6.20;95.00;;;;;;5029703;28;20499;-60
2022/10/07 03:14:04;;;;;;;26.30;8.90;;;6.40;95.00;;;;;;5043148;28;20482;-62
2022/10/07 03:16:33;;;;;;;46.33;11.67;;;6.40;94.70;;;;;;5040160;28;20487;-61
2022/10/07 03:18:59;;;;;;;38.40;9.63;;;6.40;94.70;;;;;;5042464;28;20463;-61
2022/10/07 03:21:26;;;;;;;53.43;14.20;;;6.40;94.80;;;;;;5027447;28;20494;-61
2022/10/07 03:23:54;;;;;;;56.33;14.90;;;6.50;94.50;;;;;;5041214;28;20471;-61
2022/10/07 03:26:21;;;;;;;22.83;7.87;;;6.50;94.30;;;;;;5048651;28;20483;-62
2022/10/07 03:28:48;;;;;;;33.87;9.77;;;6.50;94.30;;;;;;5047960;28;20494;-62
2022/10/07 03:31:15;;;;;;;30.23;9.33;;;6.50;94.40;;;;;;5044890;28;20470;-61
2022/10/07 03:33:43;;;;;;;33.27;10.07;;;6.50;94.20;;;;;;5053865;28;20469;-60
2022/10/07 03:36:10;;;;;;;31.30;8.60;;;;;;;;;;5047225;28;20471;-61
2022/10/07 03:38:38;;;;;;;35.27;9.57;;;;;;;;;;5045678;28;20554;-62
2022/10/07 03:41:05;;;;;;;50.37;12.03;;;6.60;94.40;;;;;;5045684;28;20486;-61
2022/10/07 03:43:32;;;;;;;53.67;14.63;;;6.40;94.40;;;;;;5046072;28;20605;-60
2022/10/07 03:46:01;;;;;;;42.07;8.90;;;;;;;;;;5048402;28;20522;-62
2022/10/07 03:48:28;;;;;;;41.43;12.10;;;6.40;94.40;;;;;;5047457;28;20588;-60
2022/10/07 03:50:57;;;;;;;34.03;9.90;;;6.30;94.30;;;;;;5044333;28;21149;-60
2022/10/07 03:53:24;;;;;;;34.80;10.20;;;6.30;94.30;;;;;;5046444;28;21041;-60
2022/10/07 03:55:51;;;;;;;24.43;8.90;;;6.20;94.40;;;;;;5040067;28;20491;-60
2022/10/07 03:58:18;;;;;;;19.03;6.97;;;6.20;94.50;;;;;;5044287;28;20874;-60
2022/10/07 04:00:45;;;;;;;29.23;8.57;;;6.20;94.60;;;;;;5063178;28;20475;-60
2022/10/07 04:03:13;;;;;;;72.03;19.97;;;6.20;94.60;;;;;;5047577;28;20476;-60
2022/10/07 04:05:39;;;;;;;24.13;7.90;;;6.20;94.60;;;;;;5055064;28;20978;-60
2022/10/07 04:08:11;;;;;;;31.57;9.03;;;6.30;94.60;;;;;;5058319;28;20483;-60
2022/10/07 04:10:37;;;;;;;32.17;8.67;;;6.30;94.30;;;;;;5041264;28;20889;-60
2022/10/07 04:13:04;;;;;;;33.47;9.10;;;6.30;94.30;;;;;;5052326;28;21010;-60
2022/10/07 04:15:31;;;;;;;39.63;11.70;;;6.30;94.30;;;;;;5049966;28;20471;-60
2022/10/07 04:17:58;;;;;;;33.47;9.67;;;6.20;94.20;;;;;;5069840;28;20489;-60
2022/10/07 04:20:25;;;;;;;36.20;10.33;;;6.30;94.40;;;;;;5059986;28;20483;-60
2022/10/07 04:22:52;;;;;;;31.70;7.97;;;6.30;94.20;;;;;;5055729;28;20625;-60
2022/10/07 04:25:37;;;;;;;20.17;6.03;;;6.10;94.00;;;;;;5054624;28;20490;-60
2022/10/07 04:28:06;;;;;;;31.83;9.07;;;6.10;94.00;;;;;;5052679;28;20576;-60
2022/10/07 04:30:38;;;;;;;47.17;11.43;;;6.10;94.00;;;;;;5052105;28;20983;-60
2022/10/07 04:33:06;;;;;;;28.70;8.37;;;6.10;94.30;;;;;;5051613;28;21277;-61
2022/10/07 04:35:37;;;;;;;61.07;13.33;;;6.10;94.40;;;;;;5052432;28;20468;-61
2022/10/07 04:38:06;;;;;;;38.63;10.00;;;6.10;94.40;;;;;;5049147;28;20491;-60
2022/10/07 04:40:39;;;;;;;52.50;12.70;;;6.10;94.60;;;;;;5050469;28;20510;-60
2022/10/07 04:43:22;;;;;;;29.93;8.63;;;6.10;94.60;;;;;;5050746;28;20490;-60
2022/10/07 04:45:51;;;;;;;33.13;7.70;;;6.10;94.30;;;;;;5041127;28;20486;-61
2022/10/07 04:48:19;;;;;;;16.60;5.83;;;6.10;94.10;;;;;;5060356;28;20507;-61
2022/10/07 04:50:46;;;;;;;37.50;8.60;;;6.10;93.90;;;;;;5054279;28;21023;-61
2022/10/07 04:53:15;;;;;;;27.77;7.17;;;6.10;93.80;;;;;;5054420;28;20499;-60
2022/10/07 04:55:45;;;;;;;26.33;6.13;;;6.10;93.70;;;;;;5054023;28;20477;-60
2022/10/07 04:58:12;;;;;;;33.97;8.67;;;6.00;93.70;;;;;;5050668;28;20570;-61
2022/10/07 05:00:43;;;;;;;43.77;9.03;;;;;;;;;;5051988;28;20495;-61
2022/10/07 05:03:10;;;;;;;24.47;6.00;;;6.00;93.60;;;;;;5063939;28;20475;-61
2022/10/07 05:05:41;;;;;;;39.63;9.73;;;6.00;93.70;;;;;;5054158;28;20998;-61
2022/10/07 05:08:07;;;;;;;30.80;8.50;;;6.00;93.80;;;;;;5053822;28;20494;-61
2022/10/07 05:10:36;;;;;;;34.73;8.80;;;6.00;93.70;;;;;;5041726;28;20479;-61
2022/10/07 05:13:04;;;;;;;36.23;8.07;;;5.90;93.70;;;;;;5052958;28;20494;-61
2022/10/07 05:15:32;;;;;;;76.33;17.33;;;;;;;;;;5047375;28;21007;-61
2022/10/07 05:18:00;;;;;;;42.33;11.23;;;;;;;;;;5035195;28;20499;-62
2022/10/07 05:20:27;;;;;;;53.93;12.53;;;;;;;;;;5040173;28;20487;-62
2022/10/07 05:22:54;;;;;;;30.23;8.37;;;5.90;93.70;;;;;;5034759;28;20473;-62
2022/10/07 05:25:21;;;;;;;21.80;7.10;;;9.30;95.10;;;;;;5034791;28;20477;-61
2022/10/07 05:27:52;;;;;;;21.90;6.17;;;5.90;93.70;;;;;;5033684;28;20527;-62
2022/10/07 05:30:20;;;;;;;25.97;7.73;;;5.90;93.60;;;;;;5043582;28;20575;-62
2022/10/07 05:32:47;;;;;;;23.40;7.53;;;5.80;93.50;;;;;;5033548;28;20822;-62
2022/10/07 05:35:14;;;;;;;22.73;7.43;;;5.80;93.90;;;;;;5038441;28;20487;-62
2022/10/07 05:37:41;;;;;;;49.80;8.67;;;5.80;93.80;;;;;;5024004;28;20514;-62
2022/10/07 05:40:08;;;;;;;24.47;7.27;;;9.10;95.30;;;;;;5034752;28;20472;-62
2022/10/07 05:42:35;;;;;;;48.07;13.13;;;5.80;93.70;;;;;;5038171;28;20479;-62
2022/10/07 05:45:04;;;;;;;44.07;8.00;;;5.80;93.70;;;;;;5033976;28;20486;-61
2022/10/07 05:47:33;;;;;;;50.27;12.77;;;3.80;92.80;;;;;;5029431;28;20491;-61
2022/10/07 05:50:00;;;;;;;34.57;10.00;;;5.80;93.60;;;;;;5029043;28;20480;-61
2022/10/07 05:52:29;;;;;;;33.87;8.50;;;5.70;93.70;;;;;;5027653;28;20480;-61
2022/10/07 05:54:56;;;;;;;47.43;10.60;;;5.60;93.70;;;;;;5029620;28;20506;-61
2022/10/07 05:57:23;;;;;;;37.00;9.60;;;;;;;;;;5047667;28;20479;-60
2022/10/07 05:59:50;;;;;;;27.17;6.80;;;5.50;94.00;;;;;;5050941;28;20483;-61
2022/10/07 06:02:18;;;;;;;23.10;6.27;;;5.50;94.30;;;;;;5053048;28;20480;-60
2022/10/07 06:04:48;;;;;;;34.90;8.97;;;5.50;94.20;;;;;;5053403;28;20476;-60
2022/10/07 06:07:15;;;;;;;27.63;8.20;;;5.60;94.20;;;;;;5038107;28;20529;-61
2022/10/07 06:15:11;;;;;;;23.57;7.00;;;5.30;94.60;;;;;;5052778;28;20558;-60
2022/10/07 06:17:41;;;;;;;56.33;10.50;;;5.50;94.80;;;;;;5051470;28;20480;-60
2022/10/07 06:20:10;;;;;;;24.67;7.37;;;5.50;94.70;;;;;;5060575;28;20562;-60
2022/10/07 06:22:37;;;;;;;50.53;10.97;;;;;;;;;;5073889;27;21001;-60
2022/10/07 06:25:04;;;;;;;44.87;8.70;;;5.70;94.60;;;;;;5080822;27;20487;-62
2022/10/07 06:27:30;;;;;;;55.67;13.47;;;5.80;94.70;;;;;;5052634;28;20975;-63
2022/10/07 06:29:57;;;;;;;33.23;8.33;;;5.90;94.60;;;;;;5052643;28;20763;-63
2022/10/07 06:32:24;;;;;;;36.00;8.30;;;6.00;94.50;;;;;;5042921;28;20482;-63
2022/10/07 06:34:51;;;;;;;31.20;7.70;;;6.00;94.50;;;;;;5059655;28;20484;-62
2022/10/07 06:37:19;;;;;;;22.90;7.30;;;6.10;94.50;;;;;;5050915;28;20486;-62
2022/10/07 06:39:46;;;;;;;39.10;7.77;;;6.30;94.80;;;;;;5050540;28;21058;-63
2022/10/07 06:42:12;;;;;;;19.20;6.77;;;6.40;94.80;;;;;;5050201;28;20742;-63
2022/10/07 06:44:39;;;;;;;36.17;8.73;;;6.60;95.10;;;;;;5057391;28;21026;-63
2022/10/07 06:47:06;;;;;;;35.77;7.30;;;7.00;95.60;;;;;;5048957;28;20479;-63
2022/10/07 06:49:33;;;;;;;33.33;9.97;;;7.50;95.80;;;;;;5049409;28;21730;-63
2022/10/07 06:52:00;;;;;;;32.63;10.00;;;;;;;;;;5047147;28;21218;-63
2022/10/07 06:54:28;;;;;;;44.70;13.00;;;9.10;94.90;;;;;;5048227;28;20579;-63
2022/10/07 06:56:54;;;;;;;26.00;9.80;;;10.30;93.80;;;;;;5053538;28;20479;-63
2022/10/07 06:59:21;;;;;;;15.10;7.73;;;11.30;92.30;;;;;;5050934;28;21002;-63
2022/10/07 07:01:48;;;;;;;25.73;7.57;;;11.90;91.10;;;;;;5052741;28;20487;-63
2022/10/07 07:04:14;;;;;;;20.30;8.80;;;12.30;90.30;;;;;;5052683;28;20816;-64
2022/10/07 07:06:41;;;;;;;14.10;6.93;;;12.80;90.10;;;;;;5042991;28;20483;-63
2022/10/07 07:09:08;;;;;;;25.50;9.87;;;13.50;90.60;;;;;;5064373;28;20483;-64
2022/10/07 07:11:36;;;;;;;28.13;12.60;;;14.00;90.20;;;;;;5052679;28;20880;-64
2022/10/07 07:14:03;;;;;;;27.10;11.77;;;14.70;88.50;;;;;;5053852;28;20478;-63
2022/10/07 07:16:31;;;;;;;29.43;11.47;;;18.10;88.90;;;;;;5052977;28;20506;-64
2022/10/07 07:19:00;;;;;;;12.27;7.27;;;16.10;86.30;;;;;;5054574;28;20480;-63
2022/10/07 07:21:27;;;;;;;25.50;13.20;;;16.60;85.80;;;;;;5052984;28;20483;-64
2022/10/07 07:23:55;;;;;;;16.97;6.73;;;17.50;82.50;;;;;;5053353;28;20537;-63
2022/10/07 07:26:22;;;;;;;14.13;8.00;;;18.20;82.70;;;;;;5038034;28;20490;-63
2022/10/07 07:28:53;;;;;;;15.03;7.73;;;;;;;;;;5051396;27;20496;-64
2022/10/07 07:31:20;;;;;;;11.40;7.53;;;19.30;77.70;;;;;;5081028;27;20478;-63
2022/10/07 07:33:51;;;;;;;15.50;8.20;;;19.50;76.50;;;;;;5068431;28;20707;-64
2022/10/07 07:36:21;;;;;;;14.43;6.00;;;19.50;75.60;;;;;;5053558;28;20498;-63
2022/10/07 07:38:51;;;;;;;13.50;7.40;;;19.30;75.40;;;;;;5059021;28;20529;-63
2022/10/07 07:41:18;;;;;;;16.53;7.80;;;19.30;76.20;;;;;;5061386;28;20562;-64
2022/10/07 07:43:49;;;;;;;17.50;6.07;;;19.40;77.00;;;;;;5057883;28;20490;-63
2022/10/07 07:46:17;;;;;;;13.10;7.03;;;17.50;73.70;;;;;;5051978;27;20483;-64
2022/10/07 07:48:45;;;;;;;26.93;16.57;;;19.00;76.30;;;;;;5050207;28;20494;-64
2022/10/07 07:51:12;;;;;;;12.47;6.70;;;18.70;76.50;;;;;;5060707;27;20490;-63
2022/10/07 07:53:39;;;;;;;17.30;8.20;;;18.40;75.50;;;;;;5066101;28;20491;-63
2022/10/07 07:56:06;;;;;;;12.07;8.23;;;;;;;;;;5056726;28;20844;-63
2022/10/07 07:58:33;;;;;;;19.57;8.93;;;;;;;;;;5052766;28;20471;-63
2022/10/07 08:01:02;;;;;;;25.40;10.60;;;17.90;78.60;;;;;;5060132;28;20478;-63
2022/10/07 08:03:30;;;;;;;22.30;11.97;;;17.70;79.50;;;;;;5067504;28;20526;-64
2022/10/07 08:06:00;;;;;;;14.37;8.40;;;17.70;80.80;;;;;;5056875;28;20482;-63
2022/10/07 08:08:27;;;;;;;26.93;12.97;;;;;;;;;;5053368;28;20471;-63
2022/10/07 08:10:54;;;;;;;19.23;7.97;;;17.80;82.50;;;;;;5060729;28;20467;-63
2022/10/07 08:13:21;;;;;;;18.73;8.60;;;17.90;82.60;;;;;;5056533;28;20791;-63
2022/10/07 08:15:47;;;;;;;15.03;7.10;;;18.00;83.10;;;;;;5050316;28;20494;-63
2022/10/07 08:18:16;;;;;;;15.90;7.07;;;18.10;82.00;;;;;;5054076;28;20498;-63
2022/10/07 08:20:46;;;;;;;21.20;9.50;;;18.00;82.10;;;;;;5054170;28;21070;-63
2022/10/07 08:23:13;;;;;;;16.70;7.80;;;;;;;;;;5056433;28;20487;-63
2022/10/07 08:25:39;;;;;;;23.77;9.27;;;17.80;82.60;;;;;;5060376;28;21969;-63
2022/10/07 08:28:06;;;;;;;21.33;7.70;;;21.20;87.00;;;;;;5053496;28;20776;-63
2022/10/07 08:30:34;;;;;;;33.67;12.30;;;14.90;81.60;;;;;;5054502;28;20863;-63
2022/10/07 08:33:01;;;;;;;21.07;8.73;;;17.50;84.00;;;;;;5058717;28;20471;-62
2022/10/07 08:35:27;;;;;;;36.73;13.67;;;17.40;85.00;;;;;;5055663;28;20483;-63
2022/10/07 08:37:55;;;;;;;24.70;7.80;;;17.30;85.20;;;;;;5054542;28;20502;-63
2022/10/07 08:40:23;;;;;;;39.00;8.43;;;;;;;;;;5054685;28;20475;-63
2022/10/07 08:42:50;;;;;;;34.20;8.83;;;;;;;;;;5054677;28;20845;-63
2022/10/07 08:45:30;;;;;;;24.57;7.00;;;17.20;87.30;;;;;;5057930;28;20487;-63
2022/10/07 08:48:00;;;;;;;31.03;11.43;;;17.30;87.30;;;;;;5065785;28;20484;-63
2022/10/07 08:50:36;;;;;;;41.87;13.23;;;17.30;88.30;;;;;;5052224;28;20872;-63
2022/10/07 08:53:10;;;;;;;33.57;9.73;;;17.40;87.50;;;;;;5032731;28;20471;-62
2022/10/07 08:55:40;;;;;;;30.00;10.10;;;17.50;87.30;;;;;;5063860;28;20479;-63
2022/10/07 08:58:18;;;;;;;23.83;9.67;;;;;;;;;;5053237;28;20483;-63
2022/10/07 09:00:52;;;;;;;24.47;9.80;;;17.60;87.70;;;;;;5053082;28;20590;-63
2022/10/07 09:03:34;;;;;;;22.67;7.60;;;17.60;87.40;;;;;;5052277;28;21225;-63
2022/10/07 09:06:03;;;;;;;22.23;8.53;;;;;;;;;;5041068;28;20912;-63
2022/10/07 09:08:35;;;;;;;37.70;11.20;;;17.60;87.60;;;;;;5053110;28;20471;-63
2022/10/07 09:11:14;;;;;;;41.87;11.20;;;17.60;87.40;;;;;;5058558;28;20481;-63
2022/10/07 09:13:46;;;;;;;23.03;7.77;;;17.60;87.40;;;;;;5075945;28;20994;-63
2022/10/07 09:16:17;;;;;;;34.60;8.57;;;17.60;87.90;;;;;;5075099;28;20565;-62
2022/10/07 09:18:49;;;;;;;23.47;8.17;;;17.70;88.20;;;;;;5076213;28;20486;-63
2022/10/07 09:21:22;;;;;;;25.33;6.77;;;17.70;88.40;;;;;;5073827;28;20684;-63
2022/10/07 09:23:54;;;;;;;19.17;7.50;;;17.80;87.60;;;;;;5073051;28;20581;-63
2022/10/07 09:26:21;;;;;;;15.13;6.77;;;17.80;87.70;;;;;;5054386;28;20485;-63
2022/10/07 09:28:48;;;;;;;20.93;7.03;;;17.90;87.90;;;;;;5070792;28;20478;-63
2022/10/07 09:31:16;;;;;;;24.13;8.70;;;18.00;88.50;;;;;;5064911;28;20572;-63
2022/10/07 09:33:45;;;;;;;15.37;5.87;;;18.00;88.00;;;;;;5089799;28;20794;-62
2022/10/07 09:36:15;;;;;;;25.73;6.77;;;18.10;88.60;;;;;;5073397;28;20891;-63
2022/10/07 09:38:43;;;;;;;19.23;6.47;;;;;;;;;;5069987;28;20605;-62
2022/10/07 09:41:18;;;;;;;20.80;8.17;;;18.10;87.20;;;;;;5064973;28;20469;-62
2022/10/07 09:43:57;;;;;;;23.87;7.20;;;18.10;87.20;;;;;;5079801;28;21005;-62
2022/10/07 09:46:39;;;;;;;30.00;9.07;;;18.20;87.10;;;;;;5073918;28;20505;-63
2022/10/07 09:49:06;;;;;;;17.77;7.20;;;18.20;87.70;;;;;;5069355;28;20479;-63
2022/10/07 09:51:34;;;;;;;34.67;10.07;;;18.30;87.90;;;;;;5072688;28;20497;-63
2022/10/07 09:54:02;;;;;;;26.77;6.87;;;18.50;89.30;;;;;;5075102;28;20478;-63
2022/10/07 09:56:39;;;;;;;58.07;13.63;;;18.70;89.00;;;;;;5069621;28;20562;-63
2022/10/07 09:59:17;;;;;;;21.67;6.03;;;;;;;;;;5070181;28;20479;-63
2022/10/07 10:01:50;;;;;;;23.00;6.50;;;19.10;88.30;;;;;;5070110;28;20486;-63
2022/10/07 10:04:17;;;;;;;27.17;6.47;;;;;;;;;;5065871;28;20547;-63
2022/10/07 10:06:49;;;;;;;20.90;6.50;;;19.40;86.70;;;;;;5070784;28;20513;-62
2022/10/07 10:09:21;;;;;;;31.37;8.60;;;19.30;86.90;;;;;;5069589;28;20527;-63
2022/10/07 10:12:14;;;;;;;27.03;7.07;;;19.30;84.40;;;;;;5073021;28;21206;-63
2022/10/07 10:14:46;;;;;;;13.10;6.13;;;19.20;84.90;;;;;;5066004;28;20502;-62
2022/10/07 10:17:26;;;;;;;22.67;6.40;;;19.40;87.00;;;;;;5058638;28;20502;-63
2022/10/07 10:19:53;;;;;;;11.23;4.97;;;;;;;;;;5073268;28;20485;-63
2022/10/07 10:22:27;;;;;;;15.70;4.83;;;19.70;85.80;;;;;;5071353;28;20485;-63
2022/10/07 10:27:49;;;;;;;26.47;5.50;;;20.00;82.10;;;;;;5052861;28;20511;-63
2022/10/07 10:30:20;;;;;;;16.73;4.27;;;20.20;82.90;;;;;;5058380;28;21110;-63
2022/10/07 10:33:08;;;;;;;27.17;5.00;;;20.40;81.60;;;;;;5058240;28;20887;-63
2022/10/07 10:35:42;;;;;;;26.30;13.63;;;20.50;81.60;;;;;;5078567;28;20557;-63
2022/10/07 10:38:35;;;;;;;20.27;5.83;;;20.50;82.50;;;;;;5072485;28;20485;-63
2022/10/07 10:41:09;;;;;;;18.03;5.47;;;20.80;83.50;;;;;;5072477;28;20486;-63
2022/10/07 10:43:51;;;;;;;31.23;10.03;;;20.70;80.00;;;;;;5071352;28;20584;-63
2022/10/07 10:46:27;;;;;;;12.80;4.60;;;;;;;;;;5074808;28;20770;-62
2022/10/07 10:48:57;;;;;;;31.93;9.43;;;20.30;80.70;;;;;;5061639;28;20720;-63
2022/10/07 10:51:38;;;;;;;28.77;9.70;;;20.40;80.60;;;;;;5069516;28;20494;-63
2022/10/07 10:54:17;;;;;;;22.77;7.67;;;20.30;82.10;;;;;;5073817;28;20475;-63
2022/10/07 10:56:47;;;;;;;30.47;7.67;;;;;;;;;;5058448;28;20470;-63
2022/10/07 10:59:33;;;;;;;16.73;5.90;;;20.50;85.90;;;;;;5071744;28;20551;-63
2022/10/07 11:02:20;;;;;;;28.37;6.83;;;;;;;;;;5072046;28;20482;-63
2022/10/07 11:04:50;;;;;;;30.03;7.07;;;18.90;80.00;;;;;;5071339;28;20481;-63
2022/10/07 11:07:20;;;;;;;20.87;6.40;;;;;;;;;;5065744;28;20467;-62
2022/10/07 11:09:50;;;;;;;29.90;6.90;;;;;;;;;;5070891;28;20625;-63
2022/10/07 11:12:23;;;;;;;34.13;8.37;;;20.40;83.80;;;;;;5070651;28;20481;-63
2022/10/07 11:14:56;;;;;;;50.27;8.97;;;20.70;84.30;;;;;;5071106;28;20505;-63
2022/10/07 11:17:27;;;;;;;46.57;11.07;;;20.90;82.00;;;;;;5069626;28;20456;-63
2022/10/07 11:19:57;;;;;;;32.67;7.40;;;;;;;;;;5071660;28;20482;-62
2022/10/07 11:22:31;;;;;;;48.27;11.33;;;;;;;;;;5068798;28;20490;-63
2022/10/07 11:25:06;;;;;;;27.67;7.70;;;21.60;86.70;;;;;;5072274;28;20486;-63
2022/10/07 11:27:35;;;;;;;50.33;11.20;;;21.60;81.60;;;;;;5073717;28;20474;-64
2022/10/07 11:30:06;;;;;;;37.43;7.97;;;21.30;79.60;;;;;;5073084;28;20474;-63
2022/10/07 11:32:40;;;;;;;39.30;11.40;;;21.10;80.50;;;;;;5066992;28;20502;-63
2022/10/07 11:35:22;;;;;;;26.83;7.60;;;21.10;82.40;;;;;;5071256;28;20861;-63
2022/10/07 11:37:54;;;;;;;29.43;7.90;;;21.00;83.10;;;;;;5069771;28;20486;-63
2022/10/07 11:40:24;;;;;;;26.50;7.40;;;20.80;81.90;;;;;;5067169;28;20482;-63
2022/10/07 11:42:56;;;;;;;39.93;8.10;;;20.90;81.30;;;;;;5056581;28;20499;-63
2022/10/07 11:45:27;;;;;;;68.40;13.03;;;20.60;82.00;;;;;;5068182;28;20482;-63
2022/10/07 11:47:59;;;;;;;64.60;11.90;;;20.80;85.40;;;;;;5070448;28;20967;-62
2022/10/07 11:50:28;;;;;;;37.77;10.10;;;;;;;;;;5069365;28;21209;-63
2022/10/07 11:53:00;;;;;;;23.33;7.60;;;21.30;85.50;;;;;;5070664;28;20735;-62
2022/10/07 11:55:29;;;;;;;40.60;11.80;;;19.10;78.80;;;;;;5068613;28;20896;-63
2022/10/07 11:57:57;;;;;;;43.77;8.60;;;;;;;;;;5068906;28;20471;-63
2022/10/07 12:00:29;;;;;;;27.37;8.30;;;22.00;86.70;;;;;;5061860;28;20689;-63
2022/10/07 12:02:56;;;;;;;47.63;7.83;;;22.40;86.40;;;;;;5063466;28;20838;-63
2022/10/07 12:06:06;;;;;;;27.40;9.40;;;22.90;83.90;;;;;;5069253;28;20509;-63
2022/10/07 12:08:36;;;;;;;30.63;10.80;;;22.70;79.80;;;;;;5062875;28;20470;-64
2022/10/07 12:11:43;;;;;;;38.07;9.57;;;22.10;79.40;;;;;;5066130;28;20997;-63
2022/10/07 12:14:32;;;;;;;23.83;8.67;;;22.10;83.60;;;;;;5069820;28;20450;-63
2022/10/07 12:17:18;;;;;;;18.00;7.33;;;22.00;80.90;;;;;;5070439;28;20531;-63
2022/10/07 12:19:46;;;;;;;17.07;5.73;;;21.90;79.50;;;;;;5067839;28;20478;-63
2022/10/07 12:22:19;;;;;;;14.77;7.03;;;22.10;82.40;;;;;;5076025;28;20481;-63
2022/10/07 12:24:47;;;;;;;14.83;5.57;;;;;;;;;;5067210;28;20702;-63
2022/10/07 12:27:16;;;;;;;38.73;5.77;;;22.50;81.20;;;;;;5056413;28;20475;-64
2022/10/07 12:29:50;;;;;;;18.10;5.37;;;22.60;80.80;;;;;;5040512;28;20899;-64
2022/10/07 12:32:41;;;;;;;15.07;5.77;;;22.10;79.40;;;;;;5076264;28;20479;-63
2022/10/07 12:35:56;;;;;;;17.90;6.70;;;21.60;82.10;;;;;;5046416;28;21093;-63
2022/10/07 12:38:27;;;;;;;25.00;7.67;;;21.40;84.40;;;;;;5052286;28;20903;-63
2022/10/07 12:41:00;;;;;;;27.17;7.07;;;;;;;;;;5060848;28;21018;-63
2022/10/07 12:43:33;;;;;;;49.57;13.40;;;;;;;;;;5071542;28;20474;-64
2022/10/07 12:46:01;;;;;;;19.47;6.50;;;21.20;82.50;;;;;;5072188;28;20477;-63
2022/10/07 12:48:36;;;;;;;31.73;10.60;;;21.00;81.30;;;;;;5068853;28;20492;-63
2022/10/07 12:51:05;;;;;;;25.33;8.50;;;21.10;84.50;;;;;;5065717;28;20484;-64
2022/10/07 12:53:39;;;;;;;26.13;7.57;;;21.40;84.30;;;;;;5069444;28;20478;-63
2022/10/07 12:56:06;;;;;;;32.77;7.50;;;21.80;83.10;;;;;;5070278;28;20487;-64
2022/10/07 13:01:40;;;;;;;17.13;7.40;;;;;;;;;;5072374;28;20504;-64
2022/10/07 13:04:40;;;;;;;25.83;4.40;;;21.70;81.80;;;;;;5070524;28;20500;-63
2022/10/07 13:07:20;;;;;;;27.43;5.43;;;;;;;;;;5056438;28;20478;-63
2022/10/07 13:09:57;;;;;;;21.70;6.10;;;;;;;;;;5071970;28;20560;-64
2022/10/07 13:12:40;;;;;;;17.83;4.17;;;21.40;83.40;;;;;;5072169;28;20610;-64
2022/10/07 13:15:13;;;;;;;23.73;5.57;;;;;;;;;;5071377;28;20605;-64
2022/10/07 13:17:50;;;;;;;24.27;4.27;;;21.90;84.50;;;;;;5073829;28;20475;-63
2022/10/07 13:20:31;;;;;;;16.80;4.70;;;;;;;;;;5069953;28;20482;-64
2022/10/07 13:23:05;;;;;;;15.57;4.20;;;22.20;82.60;;;;;;5064752;28;20501;-64
2022/10/07 13:25:32;;;;;;;11.60;5.33;;;22.20;82.90;;;;;;5066647;28;20483;-64
2022/10/07 13:28:01;;;;;;;34.10;9.13;;;;;;;;;;5072953;28;20486;-64
2022/10/07 13:30:39;;;;;;;19.17;7.80;;;22.10;83.70;;;;;;5070073;28;21184;-64